PBD563 LYTV-ULLI
Flight info
| Callsign | PBD563 |
|---|---|
| Flight time | N/A |
| Altitude | 35000 |
| Route | NIK DCT GENLU DCT PARAK DCT PODAN M857 BOKSU DCT LISGO L71 LATLA/K0841F350 L71 GITIL N743 KOLET KOLET1V |
| Aircraft | B738/M-SDE2E3FGHIRWXY/LB1 |
Departure
| Time | 2026-05-04 17:20 |
|---|---|
| Airport | Tivat Airport (LYTV) |
Arrival
| Time | N/A |
|---|---|
| Airport | Pulkovo Airport (ULLI) |
| Time | Latitude | Longitude | Altitude | Speed | Heading |
|---|---|---|---|---|---|
| 2026-05-04 17:00 | 42.41121 | 18.71792 | 28 ft | 0 kts | 163° |
| 2026-05-04 17:02 | 42.41121 | 18.71791 | 28 ft | 0 kts | 163° |
| 2026-05-04 17:10 | 42.41121 | 18.71790 | 28 ft | 0 kts | 162° |
| 2026-05-04 17:13 | 42.41120 | 18.71790 | 28 ft | 0 kts | 161° |
| 2026-05-04 17:14 | 42.41110 | 18.71795 | 28 ft | 4 kts | 161° |
| 2026-05-04 17:14 | 42.41050 | 18.71822 | 28 ft | 3 kts | 142° |
| 2026-05-04 17:15 | 42.41016 | 18.71860 | 29 ft | 5 kts | 153° |
| 2026-05-04 17:15 | 42.40968 | 18.71795 | 28 ft | 7 kts | 228° |
| 2026-05-04 17:16 | 42.40879 | 18.71839 | 29 ft | 14 kts | 139° |
| 2026-05-04 17:16 | 42.40341 | 18.72464 | 31 ft | 36 kts | 138° |
| 2026-05-04 17:17 | 42.40153 | 18.72694 | 28 ft | 36 kts | 140° |
| 2026-05-04 17:17 | 42.39728 | 18.73194 | 31 ft | 9 kts | 139° |
| 2026-05-04 17:18 | 42.39680 | 18.73246 | 32 ft | 7 kts | 163° |
| 2026-05-04 17:18 | 42.39617 | 18.73297 | 32 ft | 4 kts | 40° |
| 2026-05-04 17:19 | 42.39677 | 18.73248 | 32 ft | 5 kts | 320° |
| 2026-05-04 17:19 | 42.40225 | 18.72611 | 29 ft | 133 kts | 319° |
| 2026-05-04 17:20 | 42.40753 | 18.71984 | 105 ft | 172 kts | 319° |
| 2026-05-04 17:20 | 42.41208 | 18.71485 | 612 ft | 170 kts | 323° |
| 2026-05-04 17:20 | 42.42021 | 18.70380 | 1665 ft | 171 kts | 298° |
| 2026-05-04 17:21 | 42.41914 | 18.67184 | 3240 ft | 192 kts | 243° |
| 2026-05-04 17:21 | 42.39861 | 18.64654 | 4688 ft | 220 kts | 212° |
| 2026-05-04 17:22 | 42.38101 | 18.63220 | 6086 ft | 217 kts | 211° |
| 2026-05-04 17:22 | 42.37268 | 18.62524 | 6676 ft | 221 kts | 212° |
| 2026-05-04 17:23 | 42.32919 | 18.61492 | 9076 ft | 234 kts | 148° |
| 2026-05-04 17:23 | 42.31654 | 18.62811 | 9904 ft | 235 kts | 130° |
| 2026-05-04 17:23 | 42.30286 | 18.66656 | 11581 ft | 231 kts | 86° |
| 2026-05-04 17:24 | 42.30596 | 18.68730 | 12407 ft | 228 kts | 65° |
| 2026-05-04 17:24 | 42.34201 | 18.73078 | 14133 ft | 262 kts | 8° |
| 2026-05-04 17:25 | 42.36033 | 18.73006 | 14933 ft | 267 kts | 356° |
| 2026-05-04 17:25 | 42.39699 | 18.73272 | 16497 ft | 272 kts | 16° |
| 2026-05-04 17:26 | 42.43273 | 18.75075 | 17924 ft | 282 kts | 20° |
| 2026-05-04 17:26 | 42.49100 | 18.78077 | 19806 ft | 315 kts | 19° |
| 2026-05-04 17:27 | 42.53226 | 18.80135 | 21384 ft | 322 kts | 19° |
| 2026-05-04 17:27 | 42.57451 | 18.82248 | 22847 ft | 329 kts | 19° |
| 2026-05-04 17:28 | 42.61796 | 18.84427 | 24300 ft | 335 kts | 18° |
| 2026-05-04 17:29 | 42.68448 | 18.87769 | 26242 ft | 345 kts | 18° |
| 2026-05-04 17:29 | 42.75259 | 18.91212 | 28048 ft | 354 kts | 19° |
| 2026-05-04 17:30 | 42.80510 | 18.94818 | 28962 ft | 376 kts | 28° |
| 2026-05-04 17:31 | 42.86932 | 19.00517 | 29518 ft | 411 kts | 30° |
| 2026-05-04 17:31 | 42.94407 | 19.07250 | 30514 ft | 437 kts | 30° |
| 2026-05-04 17:32 | 42.99399 | 19.11735 | 32145 ft | 431 kts | 30° |
| 2026-05-04 17:33 | 43.06889 | 19.18457 | 34179 ft | 428 kts | 30° |
| 2026-05-04 17:33 | 43.09358 | 19.20673 | 34774 ft | 426 kts | 30° |
| 2026-05-04 17:34 | 43.16855 | 19.27407 | 35174 ft | 429 kts | 30° |
| 2026-05-04 17:34 | 43.19370 | 19.29676 | 35174 ft | 425 kts | 30° |
| 2026-05-04 17:35 | 43.31735 | 19.40813 | 35161 ft | 425 kts | 28° |
| 2026-05-04 17:36 | 43.36993 | 19.44379 | 35155 ft | 419 kts | 15° |
| 2026-05-04 17:36 | 43.42675 | 19.46154 | 35150 ft | 418 kts | 8° |
| 2026-05-04 17:37 | 43.48390 | 19.47358 | 35147 ft | 418 kts | 6° |
| 2026-05-04 17:37 | 43.54174 | 19.48528 | 35146 ft | 417 kts | 7° |
| 2026-05-04 17:38 | 43.59895 | 19.49745 | 35145 ft | 418 kts | 7° |
| 2026-05-04 17:38 | 43.65630 | 19.51006 | 35146 ft | 419 kts | 7° |
| 2026-05-04 17:39 | 43.74294 | 19.52936 | 35145 ft | 418 kts | 7° |
| 2026-05-04 17:39 | 43.80032 | 19.54221 | 35142 ft | 418 kts | 7° |
| 2026-05-04 17:40 | 43.85787 | 19.55508 | 35136 ft | 418 kts | 7° |
| 2026-05-04 17:40 | 43.91533 | 19.56800 | 35127 ft | 418 kts | 7° |
| 2026-05-04 17:41 | 43.97330 | 19.58103 | 35118 ft | 419 kts | 7° |
| 2026-05-04 17:41 | 44.03074 | 19.59399 | 35115 ft | 418 kts | 7° |
| 2026-05-04 17:42 | 44.08830 | 19.60699 | 35111 ft | 417 kts | 7° |
| 2026-05-04 17:42 | 44.14601 | 19.62009 | 35106 ft | 420 kts | 7° |
| 2026-05-04 17:43 | 44.20334 | 19.63311 | 35106 ft | 420 kts | 7° |
| 2026-05-04 17:43 | 44.26103 | 19.64622 | 35105 ft | 419 kts | 7° |
| 2026-05-04 17:44 | 44.31889 | 19.65940 | 35098 ft | 419 kts | 8° |
| 2026-05-04 17:44 | 44.37666 | 19.67255 | 35090 ft | 419 kts | 8° |
| 2026-05-04 17:45 | 44.43448 | 19.68578 | 35085 ft | 419 kts | 8° |
| 2026-05-04 17:45 | 44.49200 | 19.69899 | 35077 ft | 420 kts | 8° |
| 2026-05-04 17:46 | 44.54913 | 19.71211 | 35076 ft | 421 kts | 8° |
| 2026-05-04 17:46 | 44.60664 | 19.72534 | 35068 ft | 421 kts | 8° |
| 2026-05-04 17:47 | 44.66415 | 19.73860 | 35069 ft | 419 kts | 8° |
| 2026-05-04 17:47 | 44.72192 | 19.75193 | 35064 ft | 421 kts | 8° |
| 2026-05-04 17:48 | 44.77962 | 19.76528 | 35065 ft | 420 kts | 8° |
| 2026-05-04 17:48 | 44.83667 | 19.77852 | 35060 ft | 421 kts | 8° |
| 2026-05-04 17:49 | 44.89391 | 19.79182 | 35061 ft | 420 kts | 8° |
| 2026-05-04 17:49 | 44.95013 | 19.80493 | 35063 ft | 420 kts | 8° |
| 2026-05-04 17:50 | 45.00699 | 19.81819 | 35056 ft | 419 kts | 8° |
| 2026-05-04 17:50 | 45.06342 | 19.83139 | 35056 ft | 420 kts | 8° |
| 2026-05-04 17:51 | 45.12133 | 19.84499 | 35053 ft | 422 kts | 8° |
| 2026-05-04 17:51 | 45.17899 | 19.85852 | 35053 ft | 421 kts | 8° |
| 2026-05-04 17:52 | 45.23607 | 19.87194 | 35052 ft | 421 kts | 8° |
| 2026-05-04 17:52 | 45.29347 | 19.88547 | 35051 ft | 421 kts | 8° |
| 2026-05-04 17:53 | 45.35121 | 19.89909 | 35051 ft | 420 kts | 8° |
| 2026-05-04 17:53 | 45.40819 | 19.91256 | 35054 ft | 422 kts | 8° |
| 2026-05-04 17:54 | 45.46614 | 19.92633 | 35051 ft | 422 kts | 8° |
| 2026-05-04 17:54 | 45.52301 | 19.93987 | 35054 ft | 422 kts | 8° |
| 2026-05-04 17:55 | 45.58030 | 19.95353 | 35058 ft | 421 kts | 8° |
| 2026-05-04 17:55 | 45.63771 | 19.96725 | 35055 ft | 422 kts | 8° |
| 2026-05-04 17:56 | 45.69541 | 19.98102 | 35051 ft | 422 kts | 8° |
| 2026-05-04 17:56 | 45.75300 | 19.99479 | 35051 ft | 423 kts | 8° |
| 2026-05-04 17:57 | 45.81079 | 20.00867 | 35054 ft | 421 kts | 8° |
| 2026-05-04 17:57 | 45.86823 | 20.02249 | 35051 ft | 423 kts | 8° |
| 2026-05-04 17:58 | 45.92618 | 20.03648 | 35052 ft | 421 kts | 8° |
| 2026-05-04 17:58 | 45.98402 | 20.05046 | 35053 ft | 422 kts | 8° |
| 2026-05-04 17:59 | 46.04225 | 20.06459 | 35050 ft | 423 kts | 8° |
| 2026-05-04 18:00 | 46.12931 | 20.08574 | 35050 ft | 423 kts | 8° |
| 2026-05-04 18:00 | 46.18696 | 20.10154 | 35051 ft | 424 kts | 12° |
| 2026-05-04 18:01 | 46.24395 | 20.12314 | 35045 ft | 425 kts | 14° |
| 2026-05-04 18:01 | 46.30093 | 20.14625 | 35044 ft | 424 kts | 14° |
| 2026-05-04 18:02 | 46.38629 | 20.18042 | 35046 ft | 425 kts | 14° |
| 2026-05-04 18:02 | 46.44343 | 20.20303 | 35051 ft | 424 kts | 14° |
| 2026-05-04 18:03 | 46.50035 | 20.22548 | 35058 ft | 425 kts | 13° |
| 2026-05-04 18:03 | 46.55708 | 20.24783 | 35058 ft | 424 kts | 14° |
| 2026-05-04 18:04 | 46.61395 | 20.27030 | 35060 ft | 425 kts | 14° |
| 2026-05-04 18:05 | 46.69968 | 20.30421 | 35059 ft | 425 kts | 13° |
| 2026-05-04 18:05 | 46.75671 | 20.32683 | 35059 ft | 425 kts | 13° |
| 2026-05-04 18:06 | 46.84249 | 20.36097 | 35055 ft | 426 kts | 14° |
| 2026-05-04 18:06 | 46.89955 | 20.38371 | 35053 ft | 425 kts | 14° |
| 2026-05-04 18:07 | 46.95601 | 20.40627 | 35051 ft | 425 kts | 14° |
| 2026-05-04 18:07 | 47.01292 | 20.42907 | 35054 ft | 424 kts | 14° |
| 2026-05-04 18:08 | 47.06991 | 20.45192 | 35054 ft | 425 kts | 14° |
| 2026-05-04 18:08 | 47.12644 | 20.47466 | 35050 ft | 425 kts | 14° |
| 2026-05-04 18:09 | 47.24012 | 20.52057 | 35050 ft | 425 kts | 14° |
| 2026-05-04 18:10 | 47.29651 | 20.54340 | 35048 ft | 424 kts | 14° |
| 2026-05-04 18:10 | 47.35344 | 20.56651 | 35048 ft | 426 kts | 14° |
| 2026-05-04 18:11 | 47.41021 | 20.58960 | 35045 ft | 427 kts | 14° |
| 2026-05-04 18:11 | 47.46717 | 20.61284 | 35042 ft | 426 kts | 14° |
| 2026-05-04 18:12 | 47.52454 | 20.63627 | 35045 ft | 426 kts | 14° |
| 2026-05-04 18:12 | 47.58145 | 20.65957 | 35038 ft | 426 kts | 14° |
| 2026-05-04 18:13 | 47.63716 | 20.68244 | 35042 ft | 425 kts | 14° |
| 2026-05-04 18:14 | 47.72100 | 20.71695 | 35043 ft | 427 kts | 14° |
| 2026-05-04 18:14 | 47.77698 | 20.74007 | 35048 ft | 427 kts | 14° |
| 2026-05-04 18:15 | 47.89001 | 20.78690 | 35048 ft | 428 kts | 14° |
| 2026-05-04 18:16 | 47.94616 | 20.81025 | 35051 ft | 426 kts | 14° |
| 2026-05-04 18:16 | 48.00302 | 20.83394 | 35051 ft | 427 kts | 14° |
| 2026-05-04 18:17 | 48.08652 | 20.86881 | 35051 ft | 427 kts | 14° |
| 2026-05-04 18:18 | 48.17008 | 20.90381 | 35052 ft | 429 kts | 14° |
| 2026-05-04 18:18 | 48.22354 | 20.92629 | 35050 ft | 430 kts | 14° |
| 2026-05-04 18:19 | 48.31126 | 20.96326 | 35050 ft | 428 kts | 15° |
| 2026-05-04 18:19 | 48.36741 | 20.98699 | 35050 ft | 428 kts | 14° |
| 2026-05-04 18:20 | 48.42435 | 21.01112 | 35052 ft | 429 kts | 15° |
| 2026-05-04 18:20 | 48.48076 | 21.03508 | 35049 ft | 429 kts | 15° |
| 2026-05-04 18:21 | 48.53848 | 21.05964 | 35052 ft | 431 kts | 14° |
| 2026-05-04 18:21 | 48.59638 | 21.08434 | 35056 ft | 431 kts | 14° |
| 2026-05-04 18:22 | 48.65351 | 21.10879 | 35058 ft | 430 kts | 14° |
| 2026-05-04 18:22 | 48.71043 | 21.13319 | 35057 ft | 431 kts | 14° |
| 2026-05-04 18:23 | 48.76763 | 21.15777 | 35057 ft | 430 kts | 15° |
| 2026-05-04 18:23 | 48.82477 | 21.18237 | 35055 ft | 431 kts | 15° |
| 2026-05-04 18:24 | 48.88164 | 21.20692 | 35050 ft | 431 kts | 15° |
| 2026-05-04 18:24 | 48.93732 | 21.23100 | 35050 ft | 431 kts | 14° |
| 2026-05-04 18:25 | 48.99380 | 21.25549 | 35044 ft | 432 kts | 14° |
| 2026-05-04 18:25 | 49.05010 | 21.27997 | 35042 ft | 432 kts | 14° |
| 2026-05-04 18:26 | 49.10834 | 21.30536 | 35034 ft | 432 kts | 14° |
| 2026-05-04 18:26 | 49.16592 | 21.33054 | 35035 ft | 432 kts | 14° |
| 2026-05-04 18:27 | 49.22345 | 21.35574 | 35031 ft | 432 kts | 14° |
| 2026-05-04 18:27 | 49.28122 | 21.38110 | 35034 ft | 431 kts | 14° |
| 2026-05-04 18:28 | 49.33885 | 21.40646 | 35033 ft | 433 kts | 14° |
| 2026-05-04 18:28 | 49.39601 | 21.43161 | 35026 ft | 433 kts | 14° |
| 2026-05-04 18:29 | 49.45419 | 21.45193 | 35022 ft | 432 kts | 9° |
| 2026-05-04 18:29 | 49.51380 | 21.46741 | 35031 ft | 432 kts | 7° |
| 2026-05-04 18:30 | 49.60010 | 21.48893 | 35009 ft | 433 kts | 8° |
| 2026-05-04 18:31 | 49.65967 | 21.50426 | 34999 ft | 433 kts | 8° |
| 2026-05-04 18:31 | 49.70713 | 21.51668 | 34994 ft | 434 kts | 8° |
| 2026-05-04 18:32 | 49.76582 | 21.53222 | 34985 ft | 434 kts | 8° |
| 2026-05-04 18:32 | 49.82495 | 21.54795 | 34976 ft | 435 kts | 8° |
| 2026-05-04 18:33 | 49.88364 | 21.56361 | 34982 ft | 435 kts | 8° |
| 2026-05-04 18:33 | 49.94338 | 21.57958 | 34971 ft | 435 kts | 8° |
| 2026-05-04 18:34 | 50.00208 | 21.59533 | 34973 ft | 436 kts | 8° |
| 2026-05-04 18:34 | 50.06144 | 21.61129 | 34972 ft | 436 kts | 7° |
| 2026-05-04 18:35 | 50.12030 | 21.62714 | 34976 ft | 436 kts | 8° |
| 2026-05-04 18:35 | 50.18010 | 21.64328 | 34973 ft | 436 kts | 8° |
| 2026-05-04 18:36 | 50.23918 | 21.65928 | 34972 ft | 436 kts | 8° |
| 2026-05-04 18:36 | 50.29820 | 21.67529 | 34968 ft | 436 kts | 8° |
| 2026-05-04 18:37 | 50.35821 | 21.69162 | 34967 ft | 435 kts | 8° |
| 2026-05-04 18:37 | 50.41763 | 21.70782 | 34963 ft | 437 kts | 8° |
| 2026-05-04 18:38 | 50.47696 | 21.72405 | 34960 ft | 436 kts | 8° |
| 2026-05-04 18:38 | 50.53679 | 21.74045 | 34961 ft | 438 kts | 8° |
| 2026-05-04 18:39 | 50.59671 | 21.75694 | 34957 ft | 438 kts | 8° |
| 2026-05-04 18:39 | 50.65665 | 21.77347 | 34960 ft | 439 kts | 8° |
| 2026-05-04 18:40 | 50.71670 | 21.79004 | 34959 ft | 439 kts | 8° |
| 2026-05-04 18:40 | 50.77631 | 21.80653 | 34959 ft | 438 kts | 8° |
| 2026-05-04 18:41 | 50.83645 | 21.82318 | 34957 ft | 438 kts | 8° |
| 2026-05-04 18:41 | 50.89622 | 21.83983 | 34959 ft | 438 kts | 8° |
| 2026-05-04 18:42 | 50.95621 | 21.85656 | 34960 ft | 439 kts | 8° |
| 2026-05-04 18:42 | 51.01621 | 21.87333 | 34958 ft | 440 kts | 8° |
| 2026-05-04 18:43 | 51.07647 | 21.89071 | 34959 ft | 441 kts | 9° |
| 2026-05-04 18:43 | 51.13596 | 21.91056 | 34967 ft | 440 kts | 10° |
| 2026-05-04 18:44 | 51.19545 | 21.93121 | 34970 ft | 440 kts | 10° |
| 2026-05-04 18:44 | 51.25518 | 21.95182 | 34964 ft | 440 kts | 10° |
| 2026-05-04 18:45 | 51.31483 | 21.97221 | 34958 ft | 440 kts | 10° |
| 2026-05-04 18:45 | 51.37437 | 21.99248 | 34960 ft | 441 kts | 10° |
| 2026-05-04 18:46 | 51.43218 | 22.01215 | 34954 ft | 441 kts | 9° |
| 2026-05-04 18:46 | 51.49256 | 22.03275 | 34953 ft | 441 kts | 9° |
| 2026-05-04 18:47 | 51.55223 | 22.05315 | 34950 ft | 441 kts | 9° |
| 2026-05-04 18:47 | 51.61210 | 22.07366 | 34948 ft | 442 kts | 9° |
| 2026-05-04 18:48 | 51.67153 | 22.09407 | 34943 ft | 442 kts | 9° |
| 2026-05-04 18:48 | 51.73072 | 22.11446 | 34944 ft | 442 kts | 9° |
| 2026-05-04 18:49 | 51.79026 | 22.13507 | 34941 ft | 443 kts | 9° |
| 2026-05-04 18:49 | 51.85035 | 22.15590 | 34936 ft | 442 kts | 9° |
| 2026-05-04 18:50 | 51.91030 | 22.17672 | 34935 ft | 443 kts | 9° |
| 2026-05-04 18:50 | 51.97053 | 22.19768 | 34938 ft | 442 kts | 9° |
| 2026-05-04 18:51 | 52.03103 | 22.21878 | 34929 ft | 444 kts | 9° |
| 2026-05-04 18:51 | 52.09117 | 22.23984 | 34933 ft | 444 kts | 9° |
| 2026-05-04 18:52 | 52.15159 | 22.26107 | 34925 ft | 443 kts | 9° |
| 2026-05-04 18:52 | 52.21192 | 22.28232 | 34925 ft | 443 kts | 9° |
| 2026-05-04 18:53 | 52.27231 | 22.30364 | 34919 ft | 443 kts | 9° |
| 2026-05-04 18:53 | 52.33270 | 22.32504 | 34922 ft | 445 kts | 9° |
| 2026-05-04 18:54 | 52.39296 | 22.34645 | 34924 ft | 444 kts | 9° |
| 2026-05-04 18:54 | 52.45368 | 22.36804 | 34923 ft | 444 kts | 8° |
| 2026-05-04 18:55 | 52.51353 | 22.38942 | 34918 ft | 444 kts | 8° |
| 2026-05-04 18:55 | 52.60409 | 22.42194 | 34917 ft | 443 kts | 9° |
| 2026-05-04 18:56 | 52.66418 | 22.44354 | 34912 ft | 443 kts | 8° |
| 2026-05-04 18:56 | 52.72439 | 22.46525 | 34913 ft | 444 kts | 8° |
| 2026-05-04 18:57 | 52.78498 | 22.48715 | 34915 ft | 444 kts | 8° |
| 2026-05-04 18:57 | 52.84537 | 22.50902 | 34908 ft | 444 kts | 8° |
| 2026-05-04 18:58 | 52.90540 | 22.53081 | 34906 ft | 444 kts | 8° |
| 2026-05-04 18:58 | 52.96568 | 22.55288 | 34911 ft | 443 kts | 8° |
| 2026-05-04 18:59 | 53.02593 | 22.57493 | 34924 ft | 443 kts | 8° |
| 2026-05-04 18:59 | 53.08622 | 22.59703 | 34928 ft | 444 kts | 8° |
| 2026-05-04 19:00 | 53.14685 | 22.61934 | 34921 ft | 446 kts | 8° |
| 2026-05-04 19:00 | 53.20737 | 22.64165 | 34922 ft | 446 kts | 8° |
| 2026-05-04 19:01 | 53.26513 | 22.66301 | 34918 ft | 450 kts | 9° |
| 2026-05-04 19:01 | 53.32490 | 22.68522 | 34920 ft | 448 kts | 9° |
| 2026-05-04 19:02 | 53.38569 | 22.70777 | 34923 ft | 450 kts | 9° |
| 2026-05-04 19:02 | 53.44594 | 22.73022 | 34919 ft | 454 kts | 8° |
| 2026-05-04 19:03 | 53.50682 | 22.75302 | 34923 ft | 453 kts | 8° |
| 2026-05-04 19:03 | 53.56789 | 22.77592 | 34928 ft | 455 kts | 9° |
| 2026-05-04 19:04 | 53.62944 | 22.79913 | 34928 ft | 454 kts | 9° |
| 2026-05-04 19:04 | 53.69095 | 22.82234 | 34925 ft | 456 kts | 8° |
| 2026-05-04 19:05 | 53.75265 | 22.84571 | 34925 ft | 458 kts | 9° |
| 2026-05-04 19:05 | 53.81462 | 22.86925 | 34928 ft | 457 kts | 9° |
| 2026-05-04 19:06 | 53.87687 | 22.89297 | 34921 ft | 461 kts | 9° |
| 2026-05-04 19:06 | 53.93935 | 22.91687 | 34911 ft | 462 kts | 9° |
| 2026-05-04 19:07 | 54.00217 | 22.94088 | 34909 ft | 464 kts | 9° |
| 2026-05-04 19:07 | 54.06524 | 22.96511 | 34905 ft | 464 kts | 9° |
| 2026-05-04 19:08 | 54.12791 | 22.98940 | 34904 ft | 465 kts | 9° |
| 2026-05-04 19:08 | 54.19080 | 23.01371 | 34905 ft | 467 kts | 8° |
| 2026-05-04 19:09 | 54.25414 | 23.03838 | 34903 ft | 467 kts | 9° |
| 2026-05-04 19:09 | 54.31463 | 23.07372 | 34907 ft | 474 kts | 23° |
| 2026-05-04 19:10 | 54.37011 | 23.13464 | 34911 ft | 479 kts | 33° |
| 2026-05-04 19:10 | 54.42299 | 23.20408 | 34910 ft | 479 kts | 35° |
| 2026-05-04 19:11 | 54.47523 | 23.27429 | 34909 ft | 479 kts | 35° |
| 2026-05-04 19:11 | 54.52775 | 23.34440 | 34911 ft | 479 kts | 34° |
| 2026-05-04 19:12 | 54.60687 | 23.44916 | 34913 ft | 481 kts | 34° |
| 2026-05-04 19:13 | 54.65992 | 23.51935 | 34910 ft | 479 kts | 34° |
| 2026-05-04 19:13 | 54.71282 | 23.58938 | 34901 ft | 483 kts | 34° |
| 2026-05-04 19:14 | 54.76580 | 23.65971 | 34905 ft | 482 kts | 35° |
| 2026-05-04 19:14 | 54.81875 | 23.73027 | 34903 ft | 482 kts | 36° |
| 2026-05-04 19:15 | 54.87165 | 23.80094 | 34901 ft | 482 kts | 36° |
| 2026-05-04 19:15 | 54.92481 | 23.87211 | 34900 ft | 481 kts | 36° |
| 2026-05-04 19:16 | 54.97636 | 23.94159 | 34906 ft | 482 kts | 36° |
| 2026-05-04 19:16 | 55.02770 | 24.01103 | 34897 ft | 485 kts | 36° |
| 2026-05-04 19:17 | 55.08076 | 24.08296 | 34889 ft | 484 kts | 36° |
| 2026-05-04 19:17 | 55.13392 | 24.15533 | 34882 ft | 487 kts | 36° |
| 2026-05-04 19:18 | 55.18717 | 24.22803 | 34877 ft | 487 kts | 35° |
| 2026-05-04 19:18 | 55.24065 | 24.30114 | 34878 ft | 488 kts | 35° |
| 2026-05-04 19:19 | 55.29382 | 24.37414 | 34883 ft | 489 kts | 35° |
| 2026-05-04 19:19 | 55.34699 | 24.44754 | 34866 ft | 486 kts | 35° |
| 2026-05-04 19:20 | 55.39994 | 24.52083 | 34859 ft | 489 kts | 35° |
| 2026-05-04 19:20 | 55.45339 | 24.59500 | 34863 ft | 489 kts | 35° |
| 2026-05-04 19:21 | 55.50662 | 24.66932 | 34865 ft | 489 kts | 36° |
| 2026-05-04 19:21 | 55.55989 | 24.74398 | 34863 ft | 492 kts | 36° |
| 2026-05-04 19:22 | 55.61310 | 24.81874 | 34845 ft | 490 kts | 35° |
| 2026-05-04 19:22 | 55.66663 | 24.89406 | 34851 ft | 495 kts | 35° |
| 2026-05-04 19:23 | 55.71995 | 24.96936 | 34864 ft | 492 kts | 36° |
| 2026-05-04 19:23 | 55.77348 | 25.04529 | 34857 ft | 493 kts | 35° |
| 2026-05-04 19:24 | 55.82672 | 25.12103 | 34842 ft | 494 kts | 35° |
| 2026-05-04 19:24 | 55.88032 | 25.19752 | 34842 ft | 495 kts | 36° |
| 2026-05-04 19:25 | 55.93389 | 25.27443 | 34840 ft | 495 kts | 35° |
| 2026-05-04 19:25 | 55.98771 | 25.35190 | 34840 ft | 498 kts | 36° |
| 2026-05-04 19:26 | 56.04130 | 25.42936 | 34832 ft | 497 kts | 35° |
| 2026-05-04 19:26 | 56.09474 | 25.50682 | 34836 ft | 496 kts | 35° |
| 2026-05-04 19:27 | 56.14825 | 25.58481 | 34838 ft | 496 kts | 36° |
| 2026-05-04 19:27 | 56.20029 | 25.66661 | 34835 ft | 498 kts | 40° |
| 2026-05-04 19:28 | 56.25077 | 25.75059 | 34825 ft | 500 kts | 40° |
| 2026-05-04 19:28 | 56.30191 | 25.83629 | 34814 ft | 500 kts | 40° |
| 2026-05-04 19:29 | 56.35249 | 25.92071 | 34813 ft | 499 kts | 40° |
| 2026-05-04 19:29 | 56.40347 | 26.00553 | 34798 ft | 501 kts | 40° |
| 2026-05-04 19:30 | 56.45448 | 26.09036 | 34804 ft | 500 kts | 39° |